Time;durP1;ratioP1;P1;durP2;ratioP2;P2;SDS_P1;SDS_P2;PMS_P1;PMS_P2;Temp;Humidity;BMP_temperature;BMP_pressure;BME280_temperature;BME280_humidity;BME280_pressure;Samples;Min_cycle;Max_cycle;Signal;HPM_P1;HPM_P2
2022/07/11 00:02:10;;;;;;;0.97;0.80;;;19.90;75.30;;;;;;5090620;28;20820;-81
2022/07/11 00:04:40;;;;;;;1.00;0.90;;;19.90;75.40;;;;;;5084104;28;20460;-82
2022/07/11 00:07:08;;;;;;;1.33;0.80;;;19.90;76.80;;;;;;5083751;28;20549;-82
2022/07/11 00:09:37;;;;;;;6.50;0.90;;;19.80;79.90;;;;;;5084239;28;20452;-81
2022/07/11 00:12:07;;;;;;;0.87;0.80;;;19.80;81.40;;;;;;5084859;28;20505;-83
2022/07/11 00:14:35;;;;;;;0.83;0.80;;;19.80;75.30;;;;;;5081052;28;20454;-82
2022/07/11 00:17:04;;;;;;;0.93;0.90;;;19.80;82.00;;;;;;5084521;28;20476;-81
2022/07/11 00:19:33;;;;;;;1.07;0.90;;;19.80;78.70;;;;;;5084447;28;20461;-82
2022/07/11 00:22:02;;;;;;;1.00;0.90;;;19.80;79.70;;;;;;5083917;28;20453;-83
2022/07/11 00:24:30;;;;;;;0.80;0.80;;;19.80;80.80;;;;;;5086074;28;20450;-82
2022/07/11 00:26:59;;;;;;;1.00;0.80;;;19.70;81.00;;;;;;5084078;28;20460;-82
2022/07/11 00:29:29;;;;;;;1.10;0.90;;;19.80;80.80;;;;;;5085378;28;20450;-82
2022/07/11 00:31:57;;;;;;;1.70;0.90;;;19.80;81.00;;;;;;5085646;28;20470;-81
2022/07/11 00:34:26;;;;;;;0.90;0.80;;;19.80;81.00;;;;;;5080944;28;20457;-81
2022/07/11 00:36:55;;;;;;;1.17;1.07;;;19.70;78.80;;;;;;5085449;28;20446;-81
2022/07/11 00:39:24;;;;;;;1.20;0.90;;;19.70;83.80;;;;;;5083305;28;20445;-80
2022/07/11 00:41:52;;;;;;;1.83;1.13;;;19.70;82.10;;;;;;5086468;28;20446;-81
2022/07/11 00:44:20;;;;;;;1.10;0.80;;;19.70;85.00;;;;;;5078995;28;20451;-82
2022/07/11 00:46:49;;;;;;;2.37;1.10;;;19.70;81.90;;;;;;5082274;28;20464;-82
2022/07/11 00:49:17;;;;;;;1.07;1.00;;;19.80;81.80;;;;;;5082575;28;20499;-81
2022/07/11 00:51:46;;;;;;;1.00;0.90;;;19.80;83.50;;;;;;5088318;28;20496;-82
2022/07/11 00:54:18;;;;;;;0.97;0.97;;;19.80;85.30;;;;;;5081603;28;20468;-81
2022/07/11 00:56:46;;;;;;;1.23;0.87;;;19.80;82.40;;;;;;5082362;28;20456;-82
2022/07/11 00:59:18;;;;;;;1.73;0.90;;;19.80;86.70;;;;;;5082070;28;20525;-81
2022/07/11 01:01:47;;;;;;;1.00;1.00;;;19.80;83.20;;;;;;5082695;28;20979;-82
2022/07/11 01:04:15;;;;;;;1.00;0.90;;;19.80;83.40;;;;;;5078964;28;20498;-82
2022/07/11 01:06:44;;;;;;;1.37;1.00;;;19.80;85.60;;;;;;5085224;28;20477;-83
2022/07/11 01:09:12;;;;;;;0.87;0.87;;;19.70;86.00;;;;;;5082433;28;20456;-81
2022/07/11 01:11:42;;;;;;;1.10;0.90;;;19.70;88.00;;;;;;5085077;28;20481;-82
2022/07/11 01:14:11;;;;;;;1.00;0.90;;;19.70;87.30;;;;;;5080939;28;20496;-82
2022/07/11 01:16:40;;;;;;;1.23;1.13;;;19.80;89.40;;;;;;5085679;28;20557;-83
2022/07/11 01:19:08;;;;;;;0.80;0.80;;;19.80;89.80;;;;;;5082716;28;20469;-82
2022/07/11 01:21:39;;;;;;;1.10;0.90;;;19.80;91.50;;;;;;5080359;28;20442;-83
2022/07/11 01:24:10;;;;;;;0.80;0.80;;;19.80;87.00;;;;;;5082178;28;20458;-82
2022/07/11 01:26:38;;;;;;;0.90;0.70;;;19.80;87.00;;;;;;5082848;28;20457;-82
2022/07/11 01:29:08;;;;;;;0.80;0.80;;;19.80;90.10;;;;;;5084208;28;20466;-82
2022/07/11 01:31:39;;;;;;;1.93;0.80;;;19.70;87.40;;;;;;5082577;28;20542;-83
2022/07/11 01:34:08;;;;;;;1.03;1.00;;;19.70;88.40;;;;;;5086283;28;21197;-84
2022/07/11 01:36:36;;;;;;;2.40;1.13;;;19.80;90.50;;;;;;5084033;28;20446;-82
2022/07/11 01:39:06;;;;;;;1.23;0.80;;;19.80;88.70;;;;;;5084468;28;20481;-83
2022/07/11 01:41:36;;;;;;;1.70;1.00;;;19.70;98.20;;;;;;5087352;28;20465;-83
2022/07/11 01:44:05;;;;;;;1.17;1.03;;;19.70;91.10;;;;;;5085469;28;20469;-83
2022/07/11 01:46:34;;;;;;;0.80;0.80;;;19.70;91.60;;;;;;5087620;28;20457;-82
2022/07/11 01:49:02;;;;;;;0.80;0.80;;;19.70;91.40;;;;;;5084731;28;20464;-82
2022/07/11 01:51:31;;;;;;;1.50;0.87;;;19.70;92.40;;;;;;5085620;28;20469;-82
2022/07/11 01:54:00;;;;;;;2.30;0.80;;;19.70;92.40;;;;;;5084101;28;20989;-83
2022/07/11 01:56:29;;;;;;;1.10;0.90;;;19.70;91.30;;;;;;5083178;28;20451;-81
2022/07/11 01:59:02;;;;;;;0.90;0.90;;;19.70;92.20;;;;;;5085125;28;20449;-82
2022/07/11 02:01:30;;;;;;;1.17;1.03;;;19.70;92.40;;;;;;5078636;28;20929;-81
2022/07/11 02:03:58;;;;;;;1.13;0.93;;;19.70;92.90;;;;;;5081598;28;20893;-83
2022/07/11 02:06:27;;;;;;;0.90;0.90;;;19.60;93.10;;;;;;5082598;28;20814;-81
2022/07/11 02:08:55;;;;;;;1.63;1.37;;;19.70;93.80;;;;;;5081954;28;20457;-81
2022/07/11 02:11:24;;;;;;;0.80;0.80;;;19.70;92.80;;;;;;5084900;28;20456;-80
2022/07/11 02:13:53;;;;;;;1.27;1.00;;;19.60;91.70;;;;;;5080767;28;20469;-81
2022/07/11 02:16:23;;;;;;;1.10;0.90;;;19.60;93.20;;;;;;5076545;28;20516;-81
2022/07/11 02:18:51;;;;;;;1.23;1.00;;;19.50;92.40;;;;;;5081254;28;20457;-81
2022/07/11 02:21:19;;;;;;;1.90;1.20;;;19.60;93.50;;;;;;5080994;28;20614;-82
2022/07/11 02:23:47;;;;;;;1.10;1.00;;;19.60;92.50;;;;;;5080186;28;21008;-82
2022/07/11 02:26:16;;;;;;;1.87;1.33;;;19.60;93.00;;;;;;5077450;28;20488;-81
2022/07/11 02:28:44;;;;;;;1.37;1.33;;;19.50;93.90;;;;;;5081813;28;21067;-81
2022/07/11 02:31:13;;;;;;;1.20;1.10;;;19.50;95.10;;;;;;5079460;28;20466;-82
2022/07/11 02:33:43;;;;;;;2.33;1.10;;;19.50;94.70;;;;;;5082418;28;20481;-82
2022/07/11 02:36:13;;;;;;;1.97;1.20;;;19.50;94.80;;;;;;5081491;28;20832;-82
2022/07/11 02:38:43;;;;;;;1.63;1.00;;;19.50;94.70;;;;;;5083883;28;20449;-82
2022/07/11 02:41:12;;;;;;;1.57;1.20;;;19.50;94.30;;;;;;5080551;28;20457;-82
2022/07/11 02:43:41;;;;;;;3.00;1.10;;;19.50;95.70;;;;;;5079661;28;20470;-82
2022/07/11 02:46:10;;;;;;;1.27;1.00;;;19.50;96.70;;;;;;5082558;28;20503;-82
2022/07/11 02:48:38;;;;;;;1.20;1.10;;;19.40;97.50;;;;;;5081781;28;20460;-82
2022/07/11 02:51:08;;;;;;;1.10;1.00;;;19.40;96.50;;;;;;5084711;28;21133;-82
2022/07/11 02:53:36;;;;;;;2.40;1.00;;;19.50;97.50;;;;;;5082510;28;20473;-82
2022/07/11 02:56:06;;;;;;;1.23;1.13;;;19.50;96.90;;;;;;5081885;28;20458;-81
2022/07/11 02:58:34;;;;;;;1.40;1.20;;;19.50;96.10;;;;;;5085633;28;21187;-83
2022/07/11 03:01:02;;;;;;;1.60;1.40;;;19.50;97.20;;;;;;5084139;28;20434;-82
2022/07/11 03:03:31;;;;;;;1.50;1.20;;;19.50;98.70;;;;;;5083933;28;20486;-82
2022/07/11 03:05:59;;;;;;;1.00;1.00;;;19.50;98.50;;;;;;5084254;28;20453;-82
2022/07/11 03:08:29;;;;;;;1.13;1.03;;;19.50;99.20;;;;;;5076553;28;20977;-82
2022/07/11 03:10:58;;;;;;;1.30;1.20;;;19.50;99.10;;;;;;5082907;28;20503;-81
2022/07/11 03:13:35;;;;;;;3.07;1.20;;;19.50;99.90;;;;;;5078730;28;20879;-83
2022/07/11 03:16:05;;;;;;;2.07;1.60;;;19.60;99.90;;;;;;5082141;28;21144;-83
2022/07/11 03:18:33;;;;;;;1.40;1.30;;;19.50;99.90;;;;;;5083801;28;20482;-82
2022/07/11 03:21:02;;;;;;;1.80;1.40;;;19.60;99.90;;;;;;5084103;28;20563;-82
2022/07/11 03:23:32;;;;;;;1.20;1.20;;;19.60;99.90;;;;;;5082309;28;20837;-82
2022/07/11 03:26:00;;;;;;;1.40;1.30;;;19.60;99.90;;;;;;5082011;28;20521;-83
2022/07/11 03:28:29;;;;;;;1.20;1.10;;;19.50;99.90;;;;;;5078209;28;20534;-82
2022/07/11 03:30:57;;;;;;;1.53;1.43;;;19.50;99.90;;;;;;5082751;28;20442;-82
2022/07/11 03:33:25;;;;;;;1.40;1.30;;;19.50;99.90;;;;;;5084046;28;20490;-83
2022/07/11 03:35:54;;;;;;;1.50;1.40;;;19.60;99.90;;;;;;5084945;28;20949;-82
2022/07/11 03:38:22;;;;;;;1.40;1.30;;;19.60;99.90;;;;;;5084894;28;20812;-83
2022/07/11 03:40:52;;;;;;;1.40;1.30;;;19.50;99.90;;;;;;5088422;28;20446;-83
2022/07/11 03:43:20;;;;;;;1.37;1.27;;;19.60;99.90;;;;;;5086441;28;21043;-83
2022/07/11 03:45:48;;;;;;;1.60;1.33;;;19.60;99.90;;;;;;5086145;28;20457;-84
2022/07/11 03:48:16;;;;;;;1.67;1.40;;;19.60;99.90;;;;;;5086444;28;20953;-82
2022/07/11 03:50:45;;;;;;;3.17;1.40;;;19.60;99.90;;;;;;5083233;28;20507;-82
2022/07/11 03:53:13;;;;;;;1.83;1.43;;;19.60;99.90;;;;;;5082623;28;20939;-82
2022/07/11 03:55:42;;;;;;;1.30;1.20;;;19.60;99.90;;;;;;5083381;28;20454;-83
2022/07/11 03:58:12;;;;;;;1.87;1.20;;;19.60;99.90;;;;;;5085728;28;20450;-83
2022/07/11 04:00:41;;;;;;;1.40;1.30;;;19.60;99.90;;;;;;5099488;28;20454;-83
2022/07/11 04:03:10;;;;;;;2.67;1.43;;;19.70;99.90;;;;;;5093822;28;20469;-82
2022/07/11 04:05:38;;;;;;;1.93;1.67;;;19.60;99.90;;;;;;5078405;28;20541;-84
2022/07/11 04:08:06;;;;;;;2.60;1.60;;;19.60;99.90;;;;;;5085973;28;22027;-82
2022/07/11 04:10:35;;;;;;;1.63;1.40;;;19.70;99.90;;;;;;5087865;28;20503;-83
2022/07/11 04:13:04;;;;;;;1.87;1.77;;;19.70;99.90;;;;;;5085387;28;20550;-82
2022/07/11 04:15:34;;;;;;;1.60;1.30;;;19.60;99.90;;;;;;5086782;28;20589;-84
2022/07/11 04:18:03;;;;;;;1.93;1.53;;;19.60;99.90;;;;;;5085148;28;20450;-83
2022/07/11 04:20:31;;;;;;;2.13;1.60;;;19.60;99.90;;;;;;5085095;28;20503;-82
2022/07/11 04:22:59;;;;;;;2.10;1.90;;;19.60;99.90;;;;;;5085536;28;21199;-82
2022/07/11 04:25:28;;;;;;;2.20;2.00;;;19.60;99.90;;;;;;5085840;28;20483;-82
2022/07/11 04:27:56;;;;;;;2.80;2.50;;;19.60;99.90;;;;;;5080982;28;20896;-82
2022/07/11 04:30:25;;;;;;;3.40;2.43;;;19.70;99.90;;;;;;5086952;28;21729;-82
2022/07/11 04:32:56;;;;;;;2.23;1.60;;;19.60;99.90;;;;;;5080956;28;20587;-84
2022/07/11 04:35:27;;;;;;;1.60;1.50;;;19.60;99.90;;;;;;5085674;28;20460;-82
2022/07/11 04:37:56;;;;;;;1.70;1.60;;;19.70;99.90;;;;;;5081268;28;20447;-83
2022/07/11 04:40:25;;;;;;;2.60;1.80;;;19.60;99.90;;;;;;5088615;28;20449;-84
2022/07/11 04:42:54;;;;;;;2.63;1.83;;;19.40;99.90;;;;;;5085196;28;20470;-84
2022/07/11 04:45:22;;;;;;;2.70;1.93;;;19.50;99.90;;;;;;5086938;28;20462;-83
2022/07/11 04:47:51;;;;;;;3.03;2.03;;;19.50;99.90;;;;;;5086692;28;20454;-82
2022/07/11 04:50:21;;;;;;;2.67;1.73;;;19.50;99.90;;;;;;5088650;28;20462;-82
2022/07/11 04:52:50;;;;;;;2.13;1.93;;;19.50;99.90;;;;;;5086980;28;20470;-82
2022/07/11 04:55:19;;;;;;;1.80;1.70;;;19.60;99.90;;;;;;5084563;28;20485;-82
2022/07/11 04:57:47;;;;;;;2.20;2.00;;;19.70;99.90;;;;;;5087395;28;20449;-83
2022/07/11 05:00:16;;;;;;;1.87;1.70;;;19.70;99.90;;;;;;5085757;28;20540;-83
2022/07/11 05:02:44;;;;;;;2.73;1.80;;;19.70;99.90;;;;;;5086005;28;20578;-81
2022/07/11 05:05:13;;;;;;;2.23;2.03;;;19.70;99.90;;;;;;5091191;28;20968;-82
2022/07/11 05:07:43;;;;;;;2.37;1.70;;;19.80;99.90;;;;;;5082431;28;20508;-82
2022/07/11 05:10:12;;;;;;;2.37;1.83;;;19.80;99.90;;;;;;5085833;28;20458;-82
2022/07/11 05:12:40;;;;;;;2.50;2.30;;;19.90;99.90;;;;;;5085699;28;20473;-82
2022/07/11 05:15:09;;;;;;;3.72;2.60;;;19.90;99.90;;;;;;5090410;28;20450;-82
2022/07/11 05:17:38;;;;;;;1.93;1.73;;;19.90;99.90;;;;;;5089440;28;20200;-82
2022/07/11 05:20:14;;;;;;;2.03;1.80;;;19.90;99.90;;;;;;5080044;28;20441;-82
2022/07/11 05:22:44;;;;;;;1.90;1.80;;;19.90;99.90;;;;;;5080358;28;20473;-82
2022/07/11 05:25:13;;;;;;;2.57;2.13;;;19.90;99.90;;;;;;5085387;28;20446;-85
2022/07/11 05:27:43;;;;;;;1.90;1.80;;;19.90;99.90;;;;;;5082012;28;20880;-83
2022/07/11 05:30:12;;;;;;;2.17;1.97;;;20.00;99.90;;;;;;5088617;28;20482;-84
2022/07/11 05:32:41;;;;;;;3.60;2.20;;;20.00;99.90;;;;;;5086543;28;20473;-82
2022/07/11 05:35:11;;;;;;;2.93;2.73;;;20.00;99.90;;;;;;5093461;28;20477;-82
2022/07/11 05:37:40;;;;;;;2.50;2.30;;;20.00;99.90;;;;;;5088024;28;21219;-83
2022/07/11 05:40:11;;;;;;;3.17;2.97;;;20.10;99.90;;;;;;5085856;28;20450;-82
2022/07/11 05:42:40;;;;;;;3.10;2.90;;;20.10;99.90;;;;;;5091764;28;20469;-83
2022/07/11 05:45:10;;;;;;;3.87;2.60;;;20.10;99.90;;;;;;5092250;28;20449;-83
2022/07/11 05:47:39;;;;;;;2.87;1.90;;;20.20;99.90;;;;;;5086389;28;20966;-83
2022/07/11 05:50:09;;;;;;;1.77;1.67;;;20.20;99.90;;;;;;5087312;28;20442;-83
2022/07/11 05:52:38;;;;;;;3.57;2.00;;;20.10;99.90;;;;;;5083965;28;21010;-82
2022/07/11 05:55:07;;;;;;;4.93;3.00;;;20.10;99.90;;;;;;5074506;28;20467;-83
2022/07/11 05:57:37;;;;;;;2.90;2.70;;;20.10;99.90;;;;;;5079862;28;20489;-83
2022/07/11 06:00:06;;;;;;;2.43;2.23;;;20.10;99.90;;;;;;5089317;28;20458;-83
2022/07/11 06:02:35;;;;;;;5.83;2.00;;;20.20;99.90;;;;;;5087134;28;20936;-82
2022/07/11 06:05:04;;;;;;;2.30;2.10;;;20.20;99.90;;;;;;5086803;28;20481;-85
2022/07/11 06:10:28;;;;;;;2.63;2.23;;;20.20;99.90;;;;;;5076619;28;20457;-83
2022/07/11 06:12:58;;;;;;;2.80;2.10;;;20.20;99.90;;;;;;5089584;28;20480;-83
2022/07/11 06:15:28;;;;;;;2.50;2.30;;;20.30;99.90;;;;;;5086085;28;20486;-82
2022/07/11 06:17:57;;;;;;;3.27;2.50;;;20.30;99.90;;;;;;5084138;28;20450;-83
2022/07/11 06:20:27;;;;;;;3.33;1.90;;;20.40;99.90;;;;;;5088908;28;20450;-83
2022/07/11 06:22:56;;;;;;;2.10;2.00;;;20.40;99.90;;;;;;5095275;28;20488;-83
2022/07/11 06:25:25;;;;;;;2.53;2.40;;;20.40;99.90;;;;;;5088409;28;21338;-84
2022/07/11 06:27:53;;;;;;;3.80;2.03;;;20.50;99.90;;;;;;5086994;28;20445;-83
2022/07/11 06:30:24;;;;;;;6.20;4.37;;;20.50;99.90;;;;;;5086330;28;20454;-83
2022/07/11 06:32:54;;;;;;;2.80;2.00;;;20.50;99.90;;;;;;5075932;28;20485;-83
2022/07/11 06:35:23;;;;;;;2.37;2.17;;;20.60;99.90;;;;;;5087200;28;20628;-84
2022/07/11 06:37:52;;;;;;;2.47;1.90;;;20.70;99.90;;;;;;5076721;28;20460;-83
2022/07/11 06:40:22;;;;;;;2.13;1.90;;;20.70;99.90;;;;;;5082908;28;20450;-83
2022/07/11 06:42:52;;;;;;;2.33;2.13;;;20.70;99.90;;;;;;5083274;28;20482;-83
2022/07/11 06:45:21;;;;;;;3.80;2.90;;;20.80;99.90;;;;;;5084447;28;20446;-83
2022/07/11 06:47:52;;;;;;;3.23;2.10;;;20.80;99.90;;;;;;5082377;28;20441;-81
2022/07/11 06:50:22;;;;;;;2.90;1.73;;;20.80;99.90;;;;;;5081786;28;20481;-83
2022/07/11 06:52:51;;;;;;;2.97;1.90;;;20.80;99.90;;;;;;5094191;28;20489;-84
2022/07/11 06:55:20;;;;;;;1.70;1.60;;;20.80;99.90;;;;;;5092282;28;21157;-82
2022/07/11 06:57:50;;;;;;;2.10;1.90;;;20.80;99.90;;;;;;5083920;28;20508;-82
2022/07/11 07:00:40;;;;;;;1.37;1.23;;;20.80;99.90;;;;;;5092007;28;20465;-82
2022/07/11 07:03:12;;;;;;;2.37;2.03;;;20.80;99.90;;;;;;5092149;28;20481;-83
2022/07/11 07:05:48;;;;;;;1.87;1.73;;;20.90;99.90;;;;;;5086062;28;20449;-82
2022/07/11 07:08:18;;;;;;;2.47;1.60;;;21.00;99.90;;;;;;5088501;28;20454;-82
2022/07/11 07:10:47;;;;;;;1.60;1.50;;;21.00;99.90;;;;;;5091171;28;20452;-82
2022/07/11 07:13:16;;;;;;;2.70;2.50;;;21.10;99.90;;;;;;5095875;28;20485;-83
2022/07/11 07:15:46;;;;;;;2.60;1.70;;;21.10;99.90;;;;;;5097857;28;20531;-83
2022/07/11 07:18:17;;;;;;;1.90;1.80;;;21.10;99.90;;;;;;5091391;28;20459;-83
2022/07/11 07:20:47;;;;;;;1.70;1.60;;;21.10;99.90;;;;;;5083135;28;20458;-83
2022/07/11 07:23:16;;;;;;;2.03;1.80;;;21.10;99.90;;;;;;5096344;28;20594;-82
2022/07/11 07:25:46;;;;;;;2.17;1.97;;;21.10;99.90;;;;;;5096253;28;20442;-82
2022/07/11 07:28:15;;;;;;;1.80;1.70;;;21.00;99.90;;;;;;5096610;28;20450;-82
2022/07/11 07:30:45;;;;;;;1.70;1.60;;;21.10;99.90;;;;;;5095346;28;20968;-82
2022/07/11 07:33:16;;;;;;;1.47;1.37;;;21.20;99.90;;;;;;5085942;28;20478;-82
2022/07/11 07:36:04;;;;;;;1.37;1.27;;;21.20;99.90;;;;;;5089427;28;20484;-82
2022/07/11 07:38:33;;;;;;;1.40;1.30;;;21.30;99.90;;;;;;5086377;28;20486;-83
2022/07/11 07:41:02;;;;;;;1.93;1.13;;;21.40;99.90;;;;;;5090528;28;20445;-84
2022/07/11 07:43:32;;;;;;;1.13;1.00;;;21.40;99.90;;;;;;5095632;28;20449;-83
2022/07/11 07:46:00;;;;;;;1.20;1.10;;;21.40;99.90;;;;;;5089650;28;20449;-82
2022/07/11 07:48:32;;;;;;;1.33;1.23;;;21.40;99.90;;;;;;5092827;28;20449;-81
2022/07/11 07:51:03;;;;;;;1.77;1.50;;;21.50;99.90;;;;;;5095405;28;20454;-82
2022/07/11 07:53:33;;;;;;;1.77;1.10;;;21.60;99.90;;;;;;5083570;28;20474;-83
2022/07/11 07:56:04;;;;;;;1.30;1.20;;;21.60;99.90;;;;;;5079145;28;20506;-83
2022/07/11 07:58:33;;;;;;;1.40;1.30;;;21.60;99.90;;;;;;5087937;28;21012;-84
2022/07/11 08:03:54;;;;;;;1.23;1.10;;;21.70;99.90;;;;;;5095381;28;20496;-82
2022/07/11 08:06:24;;;;;;;0.87;0.87;;;21.80;99.90;;;;;;5091091;28;20438;-83
2022/07/11 08:08:54;;;;;;;2.37;0.83;;;21.90;99.90;;;;;;5085755;28;20971;-81
2022/07/11 08:11:24;;;;;;;0.70;0.70;;;21.90;99.90;;;;;;5094070;28;20447;-82
2022/07/11 08:14:01;;;;;;;0.60;0.60;;;21.90;99.90;;;;;;5086586;28;20523;-83
2022/07/11 08:16:32;;;;;;;0.53;0.53;;;21.90;99.90;;;;;;5082859;28;20508;-84
2022/07/11 08:19:05;;;;;;;1.57;0.77;;;22.00;99.90;;;;;;5084829;28;20946;-82
2022/07/11 08:21:36;;;;;;;0.50;0.50;;;21.90;99.90;;;;;;5089892;28;20552;-85
2022/07/11 08:24:06;;;;;;;0.50;0.50;;;21.90;99.90;;;;;;5088515;28;20564;-83
2022/07/11 08:26:36;;;;;;;0.60;0.60;;;22.00;99.90;;;;;;5086486;28;20794;-84
2022/07/11 08:29:06;;;;;;;0.60;0.60;;;21.90;99.90;;;;;;5089689;28;20486;-83
2022/07/11 08:31:37;;;;;;;0.63;0.50;;;22.10;99.90;;;;;;5083714;28;20446;-86
2022/07/11 08:34:09;;;;;;;1.17;0.60;;;22.10;99.90;;;;;;5086226;28;20492;-84
2022/07/11 08:36:44;;;;;;;0.60;0.60;;;22.10;99.90;;;;;;5086098;28;20823;-84
2022/07/11 08:39:14;;;;;;;0.70;0.63;;;22.10;99.90;;;;;;5085491;28;20973;-83
2022/07/11 08:41:45;;;;;;;0.70;0.70;;;22.10;99.90;;;;;;5090838;28;20442;-85
2022/07/11 08:44:16;;;;;;;0.57;0.57;;;22.10;99.90;;;;;;5085833;28;20766;-83
2022/07/11 08:46:47;;;;;;;0.60;0.60;;;22.10;99.90;;;;;;5086350;28;20440;-83
2022/07/11 08:49:18;;;;;;;0.70;0.70;;;22.20;99.90;;;;;;5088172;28;20466;-84
2022/07/11 08:51:49;;;;;;;0.60;0.60;;;22.20;99.90;;;;;;5085630;28;20780;-83
2022/07/11 08:54:20;;;;;;;0.57;0.57;;;22.10;99.90;;;;;;5080439;28;20491;-83
2022/07/11 08:56:52;;;;;;;0.63;0.63;;;22.20;99.90;;;;;;5090638;28;20457;-83
2022/07/11 08:59:24;;;;;;;0.70;0.70;;;22.20;99.90;;;;;;5089648;28;20457;-81
2022/07/11 09:01:56;;;;;;;0.70;0.70;;;22.30;99.90;;;;;;5081190;28;20453;-83
2022/07/11 09:04:29;;;;;;;0.60;0.60;;;22.30;99.90;;;;;;5088046;28;20449;-83
2022/07/11 09:07:02;;;;;;;0.73;0.73;;;22.40;99.90;;;;;;5082565;28;20538;-83
2022/07/11 09:09:32;;;;;;;0.80;0.80;;;22.50;99.90;;;;;;5083553;28;20453;-83
2022/07/11 09:12:02;;;;;;;0.63;0.60;;;22.50;99.90;;;;;;5086932;28;20551;-84
2022/07/11 09:14:35;;;;;;;0.83;0.83;;;22.50;99.90;;;;;;5084154;28;20446;-83
2022/07/11 09:17:08;;;;;;;0.60;0.60;;;22.60;99.90;;;;;;5084230;28;20903;-83
2022/07/11 09:19:41;;;;;;;0.70;0.70;;;22.60;99.90;;;;;;5085387;28;20438;-83
2022/07/11 09:27:50;;;;;;;0.73;0.70;;;23.00;99.90;;;;;;5087944;28;20457;-82
2022/07/11 09:30:24;;;;;;;0.70;0.70;;;22.90;99.90;;;;;;5081897;28;20543;-84
2022/07/11 09:32:58;;;;;;;0.80;0.80;;;22.90;99.90;;;;;;5089144;28;20485;-83
2022/07/11 09:35:32;;;;;;;1.03;0.97;;;23.00;99.90;;;;;;5092007;28;20873;-83
2022/07/11 09:38:05;;;;;;;1.00;0.90;;;23.00;99.90;;;;;;5087796;28;20505;-83
2022/07/11 09:40:38;;;;;;;0.70;0.70;;;23.00;99.90;;;;;;5090514;28;20453;-83
2022/07/11 09:43:09;;;;;;;1.90;0.80;;;23.10;99.90;;;;;;5089667;28;20473;-83
2022/07/11 09:45:39;;;;;;;0.90;0.73;;;23.10;99.90;;;;;;5093590;28;20422;-83
2022/07/11 09:48:10;;;;;;;0.70;0.70;;;23.20;99.90;;;;;;5093408;28;20528;-83
2022/07/11 09:50:56;;;;;;;0.70;0.70;;;23.20;99.90;;;;;;5091294;28;21007;-85
2022/07/11 09:53:25;;;;;;;0.70;0.70;;;23.30;99.90;;;;;;5090785;28;20469;-83
2022/07/11 09:55:55;;;;;;;0.70;0.70;;;23.30;99.90;;;;;;5083539;28;20465;-83
2022/07/11 09:58:31;;;;;;;0.80;0.70;;;23.30;99.90;;;;;;5089449;28;20457;-84
2022/07/11 10:01:03;;;;;;;0.60;0.60;;;23.30;99.90;;;;;;5084038;28;20473;-84
2022/07/11 10:03:33;;;;;;;0.70;0.70;;;23.30;99.90;;;;;;5089123;28;20583;-84
2022/07/11 10:06:26;;;;;;;1.07;0.70;;;23.30;99.90;;;;;;5087492;28;20449;-83
2022/07/11 10:08:57;;;;;;;1.00;0.60;;;23.30;99.90;;;;;;5089131;28;20441;-83
2022/07/11 10:11:27;;;;;;;0.80;0.80;;;23.40;99.90;;;;;;5091750;28;20548;-83
2022/07/11 10:13:59;;;;;;;0.70;0.70;;;23.40;99.90;;;;;;5081019;28;20897;-83
2022/07/11 10:16:50;;;;;;;0.70;0.70;;;23.40;99.90;;;;;;5092157;28;20469;-83
2022/07/11 10:19:28;;;;;;;0.70;0.70;;;23.40;99.90;;;;;;5091908;28;20458;-83
2022/07/11 10:22:10;;;;;;;1.07;0.73;;;23.40;99.90;;;;;;5088408;28;20468;-83
2022/07/11 10:24:53;;;;;;;0.70;0.70;;;23.40;99.90;;;;;;5088973;28;20473;-83
2022/07/11 10:27:31;;;;;;;0.80;0.60;;;23.50;99.90;;;;;;5084124;28;20442;-82
2022/07/11 10:30:09;;;;;;;0.70;0.70;;;23.50;99.90;;;;;;5091116;28;20521;-83
2022/07/11 10:33:02;;;;;;;0.90;0.70;;;23.50;99.90;;;;;;5081535;28;20478;-83
2022/07/11 10:35:33;;;;;;;0.77;0.77;;;23.60;99.90;;;;;;5084844;28;20461;-83
2022/07/11 10:38:07;;;;;;;0.63;0.63;;;23.70;99.90;;;;;;5087073;28;20480;-83
2022/07/11 10:40:46;;;;;;;1.40;1.30;;;23.70;99.90;;;;;;5085723;28;20461;-83
2022/07/11 10:43:33;;;;;;;1.13;0.90;;;23.70;99.90;;;;;;5088851;28;20512;-83
2022/07/11 10:46:04;;;;;;;0.80;0.73;;;23.80;99.90;;;;;;5089904;28;20465;-84
2022/07/11 10:48:35;;;;;;;1.53;0.70;;;23.80;99.90;;;;;;5093051;28;20481;-84
2022/07/11 10:51:15;;;;;;;1.30;0.80;;;23.90;99.90;;;;;;5092097;28;20545;-85
2022/07/11 10:53:50;;;;;;;1.07;0.70;;;23.90;99.90;;;;;;5092187;28;20485;-84
2022/07/11 10:56:48;;;;;;;0.80;0.80;;;24.00;99.90;;;;;;5091763;28;20465;-84
2022/07/11 10:59:24;;;;;;;0.70;0.70;;;23.90;99.90;;;;;;5088143;28;20453;-85
2022/07/11 11:02:21;;;;;;;0.80;0.80;;;24.00;99.90;;;;;;5092219;28;20457;-83
2022/07/11 11:04:58;;;;;;;0.80;0.80;;;24.00;99.90;;;;;;5037357;28;20620;-83
2022/07/11 11:07:32;;;;;;;0.70;0.70;;;24.00;99.90;;;;;;5087252;28;20492;-83
2022/07/11 11:10:08;;;;;;;0.80;0.70;;;24.00;99.90;;;;;;5086974;28;20466;-82
2022/07/11 11:13:14;;;;;;;0.80;0.70;;;24.00;99.90;;;;;;5077093;28;20571;-83
2022/07/11 11:15:45;;;;;;;0.73;0.73;;;24.00;99.90;;;;;;5093328;28;20449;-83
2022/07/11 11:18:38;;;;;;;0.67;0.67;;;24.00;99.90;;;;;;5092913;28;20497;-85
2022/07/11 11:21:24;;;;;;;1.60;0.60;;;24.00;99.90;;;;;;5092445;28;20453;-83
2022/07/11 11:24:16;;;;;;;1.00;0.90;;;24.00;99.90;;;;;;5087160;28;20499;-86
2022/07/11 11:26:53;;;;;;;0.70;0.70;;;24.00;99.90;;;;;;5072931;28;20502;-85
2022/07/11 11:29:27;;;;;;;0.80;0.80;;;24.00;99.90;;;;;;5093947;28;21680;-83
2022/07/11 11:31:58;;;;;;;0.70;0.70;;;24.10;99.90;;;;;;5092535;28;20537;-84
2022/07/11 11:34:30;;;;;;;1.43;0.80;;;24.10;99.90;;;;;;5095732;28;20469;-83
2022/07/11 11:37:01;;;;;;;0.80;0.80;;;24.00;99.90;;;;;;5088212;28;21138;-85
2022/07/11 11:39:33;;;;;;;0.70;0.70;;;24.10;99.90;;;;;;5089536;28;20949;-83
2022/07/11 11:42:10;;;;;;;0.63;0.63;;;24.10;99.90;;;;;;5090789;28;20823;-83
2022/07/11 11:44:58;;;;;;;0.60;0.60;;;24.20;99.90;;;;;;5086927;28;20446;-84
2022/07/11 11:47:31;;;;;;;0.90;0.90;;;24.20;99.90;;;;;;5094778;28;20453;-84
2022/07/11 11:50:01;;;;;;;1.97;0.80;;;24.20;99.90;;;;;;5093953;28;20542;-83
2022/07/11 11:52:33;;;;;;;0.70;0.70;;;24.20;99.90;;;;;;5090979;28;20475;-82
2022/07/11 11:55:04;;;;;;;1.10;1.00;;;24.20;99.90;;;;;;5093171;28;20514;-84
2022/07/11 11:57:35;;;;;;;2.00;0.80;;;24.30;99.90;;;;;;5090908;28;20462;-84
2022/07/11 12:00:05;;;;;;;1.40;0.80;;;24.30;99.90;;;;;;5093247;28;20466;-86
2022/07/11 12:02:36;;;;;;;0.80;0.80;;;24.30;99.90;;;;;;5099856;28;20536;-84
2022/07/11 12:05:09;;;;;;;1.00;0.93;;;24.30;99.90;;;;;;5099192;28;20458;-85
2022/07/11 12:07:39;;;;;;;0.83;0.83;;;24.30;99.90;;;;;;5089342;28;20445;-83
2022/07/11 12:10:09;;;;;;;1.57;0.70;;;24.30;99.90;;;;;;5098392;28;20478;-83
2022/07/11 12:12:46;;;;;;;2.33;2.23;;;24.40;99.90;;;;;;5098308;28;20481;-83
2022/07/11 12:15:34;;;;;;;2.83;0.80;;;24.40;99.90;;;;;;5095825;28;20461;-86
2022/07/11 12:18:05;;;;;;;1.00;0.90;;;24.40;99.90;;;;;;5098719;28;20553;-87
2022/07/11 12:20:41;;;;;;;0.87;0.87;;;24.40;99.90;;;;;;5098617;28;20458;-84
2022/07/11 12:23:17;;;;;;;1.13;0.80;;;24.40;99.90;;;;;;5092873;28;20481;-83
2022/07/11 12:25:50;;;;;;;1.00;0.70;;;24.40;99.90;;;;;;5092668;28;20488;-83
2022/07/11 12:28:21;;;;;;;0.90;0.90;;;24.40;99.90;;;;;;5097416;28;20450;-83
2022/07/11 12:30:56;;;;;;;0.80;0.80;;;24.40;99.90;;;;;;5094792;28;20453;-82
2022/07/11 12:33:26;;;;;;;2.00;1.43;;;24.50;99.90;;;;;;5093946;28;20489;-83
2022/07/11 12:35:57;;;;;;;1.37;1.27;;;24.50;99.90;;;;;;5093915;28;20442;-84
2022/07/11 12:38:27;;;;;;;0.90;0.90;;;24.50;99.90;;;;;;5097078;28;20477;-84
2022/07/11 12:41:01;;;;;;;0.73;0.73;;;24.50;99.90;;;;;;5094038;28;20457;-84
2022/07/11 12:46:34;;;;;;;0.97;0.97;;;24.60;99.90;;;;;;5089883;28;20461;-84
2022/07/11 12:49:03;;;;;;;0.90;0.90;;;24.70;99.90;;;;;;5092941;28;20457;-86
2022/07/11 12:51:35;;;;;;;1.13;0.90;;;24.70;99.90;;;;;;5090752;28;20450;-84
2022/07/11 12:54:05;;;;;;;0.80;0.80;;;24.80;99.90;;;;;;5091135;28;20470;-84
2022/07/11 12:56:34;;;;;;;0.90;0.90;;;24.80;99.90;;;;;;5090318;28;20529;-83
2022/07/11 12:59:05;;;;;;;0.90;0.90;;;24.70;99.90;;;;;;5083389;28;20470;-85
2022/07/11 13:01:56;;;;;;;0.90;0.90;;;24.70;99.90;;;;;;5088194;28;20503;-84
2022/07/11 13:04:37;;;;;;;1.00;1.00;;;24.80;99.90;;;;;;5087502;28;20973;-84
2022/07/11 13:10:13;;;;;;;0.90;0.90;;;24.80;99.90;;;;;;5090142;28;20456;-84
2022/07/11 13:12:45;;;;;;;0.97;0.87;;;24.80;99.90;;;;;;5090968;28;20843;-84
2022/07/11 13:15:18;;;;;;;0.90;0.90;;;24.80;99.90;;;;;;5082188;28;20469;-83
2022/07/11 13:17:49;;;;;;;0.90;0.90;;;24.80;99.90;;;;;;5088359;28;20466;-84
2022/07/11 13:20:21;;;;;;;1.10;0.90;;;24.80;99.90;;;;;;5090937;28;20446;-85
2022/07/11 13:22:52;;;;;;;0.90;0.90;;;24.80;99.90;;;;;;5083069;28;20498;-85
2022/07/11 13:25:22;;;;;;;0.90;0.90;;;24.80;99.90;;;;;;5087775;28;20451;-85
2022/07/11 13:27:52;;;;;;;0.97;0.97;;;24.80;99.90;;;;;;5094799;28;20457;-84